Clavigo — V2NQ — position and weather

sailwx.info

Track history (hours):
 
Tides and Currents Weather Stations Pressure Air Temp Water Temp Dewpoint Dewpoint Depression Visibility Wind Speed Wind Dir Waves Ship Positions

Clavigo

Last reported at 2017-Nov-19 19:18 UTC. Time now 2017-Nov-20 00:16 UTC.
Position N 47°26' W 006°55'.

Length 88 m; draft 5.5 m.

Type: Cargo ship. MMSI: 304010290.

Date/timePositionNaut miles runAvg speedWind from/ knotsBaromVisibWave heightAir tempDewpointWater temp
2017-Nov-19 19:18N 47°26' W 006°55'5 9.9
2017-Nov-19 18:48N 47°30' W 006°52'310.2
2017-Nov-19 18:30N 47°33' W 006°50'610.4
2017-Nov-19 17:58N 47°38' W 006°46'7 9.9
2017-Nov-19 17:17N 47°44' W 006°41'3 9.6
2017-Nov-19 16:57N 47°47' W 006°39'5 9.2
2017-Nov-19 16:23N 47°51' W 006°35'4 8.7
2017-Nov-19 15:53N 47°55' W 006°32'4 8.6
2017-Nov-19 15:25N 47°59' W 006°29'4 8.5
2017-Nov-19 14:59N 48°02' W 006°27'5 8.4
2017-Nov-19 14:27N 48°06' W 006°23'26 9.2
2017-Nov-19 11:35N 48°29' W 006°05'810.7
2017-Nov-19 10:50N 48°36' W 005°59'127 9.4
2017-Nov-18 21:17N 49°51' W 003°22'3 8.6
2017-Nov-18 20:59N 49°52' W 003°19'4 8.2
2017-Nov-18 20:28N 49°54' W 003°13'4 7.7
2017-Nov-18 20:00N 49°56' W 003°08'4 7.4
2017-Nov-18 19:30N 49°58' W 003°03'4 7.2
2017-Nov-18 19:00N 49°60' W 002°59'4 7.2
2017-Nov-18 18:30N 50°02' W 002°54'4 7.2
2017-Nov-18 17:54N 50°03' W 002°47'3 7.5
2017-Nov-18 17:30N 50°03' W 002°43'94 9.8
2017-Nov-18 07:57N 50°29' W 000°21'3 7.5
2017-Nov-18 07:30N 50°30' W 000°16'4 7.9
2017-Nov-18 07:00N 50°31' W 000°10'4 8.3
2017-Nov-18 06:30N 50°32' W 000°04'4 9.0
2017-Nov-18 06:00N 50°33' E 000°03'5 9.7
2017-Nov-18 05:30N 50°34' E 000°10'510.2
2017-Nov-18 05:00N 50°36' E 000°18'611.0
2017-Nov-18 04:30N 50°37' E 000°26'511.0
2017-Nov-18 04:00N 50°39' E 000°34'510.9
2017-Nov-18 03:30N 50°42' E 000°42'510.7
2017-Nov-18 03:00N 50°45' E 000°48'510.3
2017-Nov-18 02:30N 50°48' E 000°55'5 9.8
2017-Nov-18 02:00N 50°51' E 001°01'6 9.3
2017-Nov-18 01:23N 50°55' E 001°08'3 8.8
2017-Nov-18 00:59N 50°57' E 001°12'4 8.1
2017-Nov-18 00:29N 50°60' E 001°18'4 7.5
2017-Nov-18 00:00N 51°02' E 001°22'4 7.1
2017-Nov-17 23:30N 51°04' E 001°26'3 6.1
2017-Nov-17 23:00N 51°06' E 001°30'4 8.2
2017-Nov-17 22:30N 51°09' E 001°35'5 9.1
2017-Nov-17 22:00N 51°13' E 001°37'5 9.8
2017-Nov-17 21:30N 51°18' E 001°36'510.2
2017-Nov-17 21:00N 51°23' E 001°33'510.1
2017-Nov-17 20:30N 51°26' E 001°28'4 8.8
2017-Nov-17 20:00N 51°28' E 001°21'4 8.3
2017-Nov-17 19:30N 51°29' E 001°14'4 8.6
2017-Nov-17 19:00N 51°29' E 001°07'5 9.2
2017-Nov-17 18:29N 51°29' E 001°00'5 9.5
2017-Nov-17 18:00N 51°29' E 000°53'510.4
2017-Nov-17 17:30N 51°30' E 000°44'611.1
2017-Nov-17 17:00N 51°30' E 000°35'510.3
2017-Nov-17 16:30N 51°29' E 000°27'5 9.5
2017-Nov-17 16:01N 51°27' E 000°20'0 0.4
2017-Nov-17 15:31N 51°27' E 000°20'0 0.0
2017-Nov-17 15:01N 51°27' E 000°20'0 0.8
2017-Nov-17 14:31N 51°27' E 000°21'0 0.2
2017-Nov-17 14:01N 51°28' E 000°21'0 0.0
2017-Nov-17 13:31N 51°28' E 000°21'0 0.0
2017-Nov-17 13:01N 51°28' E 000°21'0 0.0
2017-Nov-17 12:31N 51°28' E 000°21'0 0.0
2017-Nov-17 12:01N 51°28' E 000°21'0 0.0
2017-Nov-17 11:31N 51°28' E 000°21'0 0.0
2017-Nov-17 11:01N 51°28' E 000°21'0 0.0
2017-Nov-17 10:30N 51°28' E 000°21'0 0.0
2017-Nov-17 10:01N 51°28' E 000°21'0 0.0
2017-Nov-17 09:31N 51°28' E 000°21'0 0.0
2017-Nov-17 09:00N 51°28' E 000°21'0 0.0
2017-Nov-17 08:31N 51°28' E 000°21'0 0.0
2017-Nov-17 08:00N 51°28' E 000°21'0 0.0
2017-Nov-17 07:30N 51°28' E 000°21'0 0.0
2017-Nov-17 07:00N 51°28' E 000°21'0 0.0
2017-Nov-17 06:30N 51°28' E 000°21'0 0.0
2017-Nov-17 06:01N 51°28' E 000°21'0 0.0
2017-Nov-17 05:30N 51°28' E 000°21'0 0.0
2017-Nov-17 05:01N 51°28' E 000°21'0 0.0
2017-Nov-17 04:31N 51°28' E 000°21'0 0.0
2017-Nov-17 04:00N 51°28' E 000°21'0 0.0
2017-Nov-17 03:31N 51°28' E 000°21'0 0.0
2017-Nov-17 03:01N 51°28' E 000°21'0 0.0
2017-Nov-17 02:31N 51°28' E 000°21'0 0.0
2017-Nov-17 02:01N 51°28' E 000°21'0 0.0
2017-Nov-17 01:31N 51°28' E 000°21'0 0.0
2017-Nov-17 01:00N 51°28' E 000°21'0 0.0
2017-Nov-17 00:31N 51°28' E 000°21'0 0.0
2017-Nov-17 00:01N 51°28' E 000°21'0 0.0
2017-Nov-16 23:31N 51°28' E 000°21'0 0.0
2017-Nov-16 23:00N 51°28' E 000°21'0 0.0
2017-Nov-16 22:31N 51°28' E 000°21'0 0.0
2017-Nov-16 22:00N 51°28' E 000°21'0 0.0
2017-Nov-16 21:30N 51°28' E 000°21'0 0.0
2017-Nov-16 21:01N 51°28' E 000°21'0 0.0
2017-Nov-16 20:31N 51°28' E 000°21'0 0.0
2017-Nov-16 20:01N 51°28' E 000°21'0 0.0
2017-Nov-16 19:30N 51°28' E 000°21'0 0.0
2017-Nov-16 19:01N 51°28' E 000°21'0 0.0
2017-Nov-16 18:31N 51°28' E 000°21'0 0.0
2017-Nov-16 18:01N 51°28' E 000°21'0 0.0
2017-Nov-16 17:31N 51°28' E 000°21'0 0.0
2017-Nov-16 17:01N 51°28' E 000°21'0 0.0
2017-Nov-16 16:31N 51°28' E 000°21'0 0.0
2017-Nov-16 16:01N 51°28' E 000°21'0 0.0
2017-Nov-16 15:31N 51°28' E 000°21'0 0.0
2017-Nov-16 15:01N 51°28' E 000°21'0 0.0
2017-Nov-16 14:31N 51°28' E 000°21'0 0.0
2017-Nov-16 14:01N 51°28' E 000°21'0 0.0
2017-Nov-16 13:31N 51°28' E 000°21'2 0.9
2017-Nov-16 11:25N 51°27' E 000°24'4 8.6
2017-Nov-16 11:00N 51°29' E 000°28'510.8
2017-Nov-16 10:30N 51°30' E 000°37'611.8
2017-Nov-16 10:00N 51°30' E 000°46'611.9
2017-Nov-16 09:30N 51°30' E 000°55'2 4.7
2017-Nov-16 08:59N 51°31' E 000°59'0 0.1
2017-Nov-16 08:29N 51°31' E 000°59'0 0.0
2017-Nov-16 07:59N 51°31' E 000°59'0 0.0
2017-Nov-16 07:29N 51°31' E 000°59'0 0.0
2017-Nov-16 06:59N 51°31' E 000°59'0 0.0
2017-Nov-16 06:29N 51°31' E 000°59'0 0.1
2017-Nov-16 05:44N 51°31' E 000°59'0 0.1
2017-Nov-16 05:29N 51°31' E 000°59'0 0.0
2017-Nov-16 04:50N 51°31' E 000°59'0 0.0
2017-Nov-16 04:26N 51°31' E 000°59'0 0.0
2017-Nov-16 03:56N 51°31' E 000°59'0 0.0
2017-Nov-16 03:29N 51°31' E 000°59'0 0.0
2017-Nov-16 02:41N 51°31' E 000°59'0 0.0
2017-Nov-16 02:26N 51°31' E 000°59'0 0.0
2017-Nov-16 01:50N 51°31' E 000°59'0 0.0
2017-Nov-16 01:29N 51°31' E 000°59'0 0.0
2017-Nov-16 00:59N 51°31' E 000°59'0 0.0
2017-Nov-16 00:23N 51°31' E 000°59'0 0.0
2017-Nov-15 23:59N 51°31' E 000°59'0 0.0
2017-Nov-15 23:26N 51°31' E 000°59'0 0.1
2017-Nov-15 22:38N 51°31' E 000°59'0 0.0
2017-Nov-15 22:23N 51°31' E 000°59'0 0.0
2017-Nov-15 21:56N 51°31' E 000°59'0 0.0
2017-Nov-15 21:29N 51°31' E 000°59'0 0.0
2017-Nov-15 20:59N 51°31' E 000°59'0 0.0
2017-Nov-15 20:14N 51°31' E 000°59'0 0.0
2017-Nov-15 19:59N 51°31' E 000°59'0 0.0
2017-Nov-15 19:29N 51°31' E 000°59'0 0.0
2017-Nov-15 18:47N 51°31' E 000°59'0 0.0
2017-Nov-15 18:26N 51°31' E 000°59'0 0.0
2017-Nov-15 17:59N 51°31' E 000°59'0 0.0
2017-Nov-15 15:50N 51°31' E 000°59'0 0.0
2017-Nov-15 15:23N 51°31' E 000°59'0 0.0
2017-Nov-15 14:56N 51°31' E 000°59'0 0.0
2017-Nov-15 14:14N 51°31' E 000°59'0 0.0
2017-Nov-15 13:59N 51°31' E 000°59'0 0.0
2017-Nov-15 13:23N 51°31' E 000°59'0 0.0
2017-Nov-15 12:47N 51°31' E 000°59'0 0.0
2017-Nov-15 12:26N 51°31' E 000°59'0 0.0
2017-Nov-15 11:56N 51°31' E 000°59'0 0.0
2017-Nov-15 11:29N 51°31' E 000°59'0 0.0
2017-Nov-15 10:56N 51°31' E 000°59'0 0.1
2017-Nov-15 10:23N 51°31' E 000°59'0 0.1
2017-Nov-15 09:56N 51°31' E 000°59'0 0.0
2017-Nov-15 08:47N 51°31' E 000°59'0 0.0
2017-Nov-15 08:29N 51°31' E 000°59'0 0.0
2017-Nov-15 07:56N 51°31' E 000°59'0 0.0
2017-Nov-15 07:23N 51°31' E 000°59'0 0.0
2017-Nov-15 06:56N 51°31' E 000°59'0 0.0
2017-Nov-15 06:29N 51°31' E 000°59'0 0.0
2017-Nov-15 05:59N 51°31' E 000°59'0 0.1
2017-Nov-15 04:23N 51°31' E 000°59'0 0.0
2017-Nov-15 03:53N 51°31' E 000°59'0 0.0
2017-Nov-15 03:02N 51°31' E 000°59'0 0.0
2017-Nov-15 02:41N 51°31' E 000°59'0 0.0
2017-Nov-15 02:29N 51°31' E 000°59'0 0.0
2017-Nov-15 01:47N 51°31' E 000°59'0 0.0
2017-Nov-15 01:26N 51°31' E 000°59'0 0.0
2017-Nov-15 00:59N 51°31' E 000°59'0 0.0
2017-Nov-15 00:17N 51°31' E 000°59'0 0.0
2017-Nov-14 23:59N 51°31' E 000°59'0 0.0
2017-Nov-14 23:23N 51°31' E 000°59'0 0.0
2017-Nov-14 21:17N 51°31' E 000°59'0 0.1
2017-Nov-14 20:29N 51°31' E 000°59'0 0.0
2017-Nov-14 19:50N 51°31' E 000°59'0 0.0
2017-Nov-14 19:20N 51°31' E 000°59'0 0.0
2017-Nov-14 18:59N 51°31' E 000°59'0 0.0
2017-Nov-14 18:29N 51°31' E 000°59'0 0.0
2017-Nov-14 17:59N 51°31' E 000°59'0 0.0
2017-Nov-14 17:23N 51°31' E 000°59'0 0.0
2017-Nov-14 13:23N 51°31' E 000°59'0 0.0
2017-Nov-14 12:26N 51°31' E 000°59'0 0.0
2017-Nov-14 08:06N 51°31' E 000°59'0 1.0
2017-Nov-14 07:58N 51°31' E 000°59'2 4.0
2017-Nov-14 07:30N 51°29' E 000°58'511.1
2017-Nov-14 07:00N 51°30' E 001°06'611.6
2017-Nov-14 06:30N 51°29' E 001°16'611.0
2017-Nov-14 06:00N 51°29' E 001°24'511.0
2017-Nov-14 05:30N 51°31' E 001°32'611.3
2017-Nov-14 05:00N 51°34' E 001°40'611.2
2017-Nov-14 04:30N 51°37' E 001°47'611.0
2017-Nov-14 04:00N 51°40' E 001°55'611.0
2017-Nov-14 03:30N 51°43' E 002°02'610.4
2017-Nov-14 02:55N 51°47' E 002°11'78 3.1
2017-Nov-13 01:58N 51°53' E 004°16'0 0.0
2017-Nov-13 01:28N 51°53' E 004°16'0 0.0
2017-Nov-13 00:58N 51°53' E 004°16'0 0.0
2017-Nov-13 00:28N 51°53' E 004°16'0 0.0
2017-Nov-12 23:58N 51°53' E 004°16'0 0.0
2017-Nov-12 23:28N 51°53' E 004°16'0 0.0
2017-Nov-12 22:58N 51°53' E 004°16'0 0.0
2017-Nov-12 22:28N 51°53' E 004°16'0 0.0
2017-Nov-12 21:58N 51°53' E 004°16'0 0.0
2017-Nov-12 21:28N 51°53' E 004°16'0 0.0
2017-Nov-12 20:58N 51°53' E 004°16'0 0.4
2017-Nov-12 20:30N 51°53' E 004°16'2 3.7
2017-Nov-12 20:00N 51°55' E 004°15'510.5
2017-Nov-12 19:31N 51°58' E 004°08'4 8.6
2017-Nov-12 19:00N 51°60' E 004°02'4 7.0
2017-Nov-12 18:30N 51°60' E 003°56'4 7.0
2017-Nov-12 18:00N 51°59' E 003°50'3 6.7
2017-Nov-12 17:30N 51°59' E 003°45'4 6.3
2017-Nov-12 16:56N 51°58' E 003°40'46 6.6
2017-Nov-12 09:59N 51°40' E 002°31'7 9.2
2017-Nov-12 09:11N 51°34' E 002°23'3 9.9
2017-Nov-12 08:51N 51°31' E 002°20'4 9.9
2017-Nov-12 08:26N 51°28' E 002°15'4 9.8
2017-Nov-12 08:00N 51°25' E 002°12'5 9.9
2017-Nov-12 07:30N 51°20' E 002°08'510.1
2017-Nov-12 07:01N 51°16' E 002°05'510.4
2017-Nov-12 06:30N 51°12' E 001°59'510.2
2017-Nov-12 06:00N 51°09' E 001°52'510.0
2017-Nov-12 05:30N 51°06' E 001°46'5 9.9
2017-Nov-12 05:00N 51°02' E 001°41'5 9.6
2017-Nov-12 04:30N 50°58' E 001°36'5 9.0
2017-Nov-12 04:00N 50°55' E 001°31'4 8.3
2017-Nov-12 03:30N 50°51' E 001°28'108 8.2
2017-Nov-11 14:20N 50°06' W 001°05'410.9
2017-Nov-11 14:00N 50°05' W 001°10'610.9
2017-Nov-11 13:30N 50°04' W 001°19'511.0
2017-Nov-11 13:00N 50°02' W 001°27'611.2
2017-Nov-11 12:30N 50°01' W 001°35'511.0
2017-Nov-11 12:00N 49°59' W 001°43'510.4
2017-Nov-11 11:30N 49°58' W 001°51'5 9.9
2017-Nov-11 11:00N 49°57' W 001°59'11 9.0
2017-Nov-11 09:49N 49°54' W 002°15'2 7.8
2017-Nov-11 09:30N 49°53' W 002°18'9 7.6
2017-Nov-11 08:18N 49°51' W 002°32'2 7.4
2017-Nov-11 08:00N 49°50' W 002°35'126 8.7
2017-Nov-10 17:32N 48°50' W 005°26'0 9.5
2017-Nov-10 17:29N 48°50' W 005°26'10 8.1
2017-Nov-10 16:17N 48°44' W 005°38'3 7.8
2017-Nov-10 15:53N 48°41' W 005°40'5 7.6
2017-Nov-10 15:11N 48°37' W 005°44'1 7.3
2017-Nov-10 15:00N 48°35' W 005°45'3 7.1
2017-Nov-10 14:30N 48°32' W 005°46'4 6.9
2017-Nov-10 13:57N 48°28' W 005°48'58 7.4
2017-Nov-10 06:02N 47°32' W 006°08'0 7.3
2017-Nov-10 06:00N 47°32' W 006°08'  
Track history (hours):
 
Tides and Currents Weather Stations Pressure Air Temp Water Temp Dewpoint Dewpoint Depression Visibility Wind Speed Wind Dir Waves Ship Positions

Clavigo

Last reported at 2017-Nov-19 19:18 UTC. Time now 2017-Nov-20 00:16 UTC.
Position N 47°26' W 006°55'.

Length 88 m; draft 5.5 m.

Type: Cargo ship. MMSI: 304010290.

Date/timePositionNaut miles runAvg speedWind from/ knotsBaromVisibWave heightAir tempDewpointWater temp
2017-Nov-19 19:18N 47°26' W 006°55'5 9.9
2017-Nov-19 18:48N 47°30' W 006°52'310.2
2017-Nov-19 18:30N 47°33' W 006°50'610.4
2017-Nov-19 17:58N 47°38' W 006°46'7 9.9
2017-Nov-19 17:17N 47°44' W 006°41'3 9.6
2017-Nov-19 16:57N 47°47' W 006°39'5 9.2
2017-Nov-19 16:23N 47°51' W 006°35'4 8.7
2017-Nov-19 15:53N 47°55' W 006°32'4 8.6
2017-Nov-19 15:25N 47°59' W 006°29'4 8.5
2017-Nov-19 14:59N 48°02' W 006°27'5 8.4
2017-Nov-19 14:27N 48°06' W 006°23'26 9.2
2017-Nov-19 11:35N 48°29' W 006°05'810.7
2017-Nov-19 10:50N 48°36' W 005°59'127 9.4
2017-Nov-18 21:17N 49°51' W 003°22'3 8.6
2017-Nov-18 20:59N 49°52' W 003°19'4 8.2
2017-Nov-18 20:28N 49°54' W 003°13'4 7.7
2017-Nov-18 20:00N 49°56' W 003°08'4 7.4
2017-Nov-18 19:30N 49°58' W 003°03'4 7.2
2017-Nov-18 19:00N 49°60' W 002°59'4 7.2
2017-Nov-18 18:30N 50°02' W 002°54'4 7.2
2017-Nov-18 17:54N 50°03' W 002°47'3 7.5
2017-Nov-18 17:30N 50°03' W 002°43'94 9.8
2017-Nov-18 07:57N 50°29' W 000°21'3 7.5
2017-Nov-18 07:30N 50°30' W 000°16'4 7.9
2017-Nov-18 07:00N 50°31' W 000°10'4 8.3
2017-Nov-18 06:30N 50°32' W 000°04'4 9.0
2017-Nov-18 06:00N 50°33' E 000°03'5 9.7
2017-Nov-18 05:30N 50°34' E 000°10'510.2
2017-Nov-18 05:00N 50°36' E 000°18'611.0
2017-Nov-18 04:30N 50°37' E 000°26'511.0
2017-Nov-18 04:00N 50°39' E 000°34'510.9
2017-Nov-18 03:30N 50°42' E 000°42'510.7
2017-Nov-18 03:00N 50°45' E 000°48'510.3
2017-Nov-18 02:30N 50°48' E 000°55'5 9.8
2017-Nov-18 02:00N 50°51' E 001°01'6 9.3
2017-Nov-18 01:23N 50°55' E 001°08'3 8.8
2017-Nov-18 00:59N 50°57' E 001°12'4 8.1
2017-Nov-18 00:29N 50°60' E 001°18'4 7.5
2017-Nov-18 00:00N 51°02' E 001°22'4 7.1
2017-Nov-17 23:30N 51°04' E 001°26'3 6.1
2017-Nov-17 23:00N 51°06' E 001°30'4 8.2
2017-Nov-17 22:30N 51°09' E 001°35'5 9.1
2017-Nov-17 22:00N 51°13' E 001°37'5 9.8
2017-Nov-17 21:30N 51°18' E 001°36'510.2
2017-Nov-17 21:00N 51°23' E 001°33'510.1
2017-Nov-17 20:30N 51°26' E 001°28'4 8.8
2017-Nov-17 20:00N 51°28' E 001°21'4 8.3
2017-Nov-17 19:30N 51°29' E 001°14'4 8.6
2017-Nov-17 19:00N 51°29' E 001°07'5 9.2
2017-Nov-17 18:29N 51°29' E 001°00'5 9.5
2017-Nov-17 18:00N 51°29' E 000°53'510.4
2017-Nov-17 17:30N 51°30' E 000°44'611.1
2017-Nov-17 17:00N 51°30' E 000°35'510.3
2017-Nov-17 16:30N 51°29' E 000°27'5 9.5
2017-Nov-17 16:01N 51°27' E 000°20'0 0.4
2017-Nov-17 15:31N 51°27' E 000°20'0 0.0
2017-Nov-17 15:01N 51°27' E 000°20'0 0.8
2017-Nov-17 14:31N 51°27' E 000°21'0 0.2
2017-Nov-17 14:01N 51°28' E 000°21'0 0.0
2017-Nov-17 13:31N 51°28' E 000°21'0 0.0
2017-Nov-17 13:01N 51°28' E 000°21'0 0.0
2017-Nov-17 12:31N 51°28' E 000°21'0 0.0
2017-Nov-17 12:01N 51°28' E 000°21'0 0.0
2017-Nov-17 11:31N 51°28' E 000°21'0 0.0
2017-Nov-17 11:01N 51°28' E 000°21'0 0.0
2017-Nov-17 10:30N 51°28' E 000°21'0 0.0
2017-Nov-17 10:01N 51°28' E 000°21'0 0.0
2017-Nov-17 09:31N 51°28' E 000°21'0 0.0
2017-Nov-17 09:00N 51°28' E 000°21'0 0.0
2017-Nov-17 08:31N 51°28' E 000°21'0 0.0
2017-Nov-17 08:00N 51°28' E 000°21'0 0.0
2017-Nov-17 07:30N 51°28' E 000°21'0 0.0
2017-Nov-17 07:00N 51°28' E 000°21'0 0.0
2017-Nov-17 06:30N 51°28' E 000°21'0 0.0
2017-Nov-17 06:01N 51°28' E 000°21'0 0.0
2017-Nov-17 05:30N 51°28' E 000°21'0 0.0
2017-Nov-17 05:01N 51°28' E 000°21'0 0.0
2017-Nov-17 04:31N 51°28' E 000°21'0 0.0
2017-Nov-17 04:00N 51°28' E 000°21'0 0.0
2017-Nov-17 03:31N 51°28' E 000°21'0 0.0
2017-Nov-17 03:01N 51°28' E 000°21'0 0.0
2017-Nov-17 02:31N 51°28' E 000°21'0 0.0
2017-Nov-17 02:01N 51°28' E 000°21'0 0.0
2017-Nov-17 01:31N 51°28' E 000°21'0 0.0
2017-Nov-17 01:00N 51°28' E 000°21'0 0.0
2017-Nov-17 00:31N 51°28' E 000°21'0 0.0
2017-Nov-17 00:01N 51°28' E 000°21'0 0.0
2017-Nov-16 23:31N 51°28' E 000°21'0 0.0
2017-Nov-16 23:00N 51°28' E 000°21'0 0.0
2017-Nov-16 22:31N 51°28' E 000°21'0 0.0
2017-Nov-16 22:00N 51°28' E 000°21'0 0.0
2017-Nov-16 21:30N 51°28' E 000°21'0 0.0
2017-Nov-16 21:01N 51°28' E 000°21'0 0.0
2017-Nov-16 20:31N 51°28' E 000°21'0 0.0
2017-Nov-16 20:01N 51°28' E 000°21'0 0.0
2017-Nov-16 19:30N 51°28' E 000°21'0 0.0
2017-Nov-16 19:01N 51°28' E 000°21'0 0.0
2017-Nov-16 18:31N 51°28' E 000°21'0 0.0
2017-Nov-16 18:01N 51°28' E 000°21'0 0.0
2017-Nov-16 17:31N 51°28' E 000°21'0 0.0
2017-Nov-16 17:01N 51°28' E 000°21'0 0.0
2017-Nov-16 16:31N 51°28' E 000°21'0 0.0
2017-Nov-16 16:01N 51°28' E 000°21'0 0.0
2017-Nov-16 15:31N 51°28' E 000°21'0 0.0
2017-Nov-16 15:01N 51°28' E 000°21'0 0.0
2017-Nov-16 14:31N 51°28' E 000°21'0 0.0
2017-Nov-16 14:01N 51°28' E 000°21'0 0.0
2017-Nov-16 13:31N 51°28' E 000°21'2 0.9
2017-Nov-16 11:25N 51°27' E 000°24'4 8.6
2017-Nov-16 11:00N 51°29' E 000°28'510.8
2017-Nov-16 10:30N 51°30' E 000°37'611.8
2017-Nov-16 10:00N 51°30' E 000°46'611.9
2017-Nov-16 09:30N 51°30' E 000°55'2 4.7
2017-Nov-16 08:59N 51°31' E 000°59'0 0.1
2017-Nov-16 08:29N 51°31' E 000°59'0 0.0
2017-Nov-16 07:59N 51°31' E 000°59'0 0.0
2017-Nov-16 07:29N 51°31' E 000°59'0 0.0
2017-Nov-16 06:59N 51°31' E 000°59'0 0.0
2017-Nov-16 06:29N 51°31' E 000°59'0 0.1
2017-Nov-16 05:44N 51°31' E 000°59'0 0.1
2017-Nov-16 05:29N 51°31' E 000°59'0 0.0
2017-Nov-16 04:50N 51°31' E 000°59'0 0.0
2017-Nov-16 04:26N 51°31' E 000°59'0 0.0
2017-Nov-16 03:56N 51°31' E 000°59'0 0.0
2017-Nov-16 03:29N 51°31' E 000°59'0 0.0
2017-Nov-16 02:41N 51°31' E 000°59'0 0.0
2017-Nov-16 02:26N 51°31' E 000°59'0 0.0
2017-Nov-16 01:50N 51°31' E 000°59'0 0.0
2017-Nov-16 01:29N 51°31' E 000°59'0 0.0
2017-Nov-16 00:59N 51°31' E 000°59'0 0.0
2017-Nov-16 00:23N 51°31' E 000°59'0 0.0
2017-Nov-15 23:59N 51°31' E 000°59'0 0.0
2017-Nov-15 23:26N 51°31' E 000°59'0 0.1
2017-Nov-15 22:38N 51°31' E 000°59'0 0.0
2017-Nov-15 22:23N 51°31' E 000°59'0 0.0
2017-Nov-15 21:56N 51°31' E 000°59'0 0.0
2017-Nov-15 21:29N 51°31' E 000°59'0 0.0
2017-Nov-15 20:59N 51°31' E 000°59'0 0.0
2017-Nov-15 20:14N 51°31' E 000°59'0 0.0
2017-Nov-15 19:59N 51°31' E 000°59'0 0.0
2017-Nov-15 19:29N 51°31' E 000°59'0 0.0
2017-Nov-15 18:47N 51°31' E 000°59'0 0.0
2017-Nov-15 18:26N 51°31' E 000°59'0 0.0
2017-Nov-15 17:59N 51°31' E 000°59'0 0.0
2017-Nov-15 15:50N 51°31' E 000°59'0 0.0
2017-Nov-15 15:23N 51°31' E 000°59'0 0.0
2017-Nov-15 14:56N 51°31' E 000°59'0 0.0
2017-Nov-15 14:14N 51°31' E 000°59'0 0.0
2017-Nov-15 13:59N 51°31' E 000°59'0 0.0
2017-Nov-15 13:23N 51°31' E 000°59'0 0.0
2017-Nov-15 12:47N 51°31' E 000°59'0 0.0
2017-Nov-15 12:26N 51°31' E 000°59'0 0.0
2017-Nov-15 11:56N 51°31' E 000°59'0 0.0
2017-Nov-15 11:29N 51°31' E 000°59'0 0.0
2017-Nov-15 10:56N 51°31' E 000°59'0 0.1
2017-Nov-15 10:23N 51°31' E 000°59'0 0.1
2017-Nov-15 09:56N 51°31' E 000°59'0 0.0
2017-Nov-15 08:47N 51°31' E 000°59'0 0.0
2017-Nov-15 08:29N 51°31' E 000°59'0 0.0
2017-Nov-15 07:56N 51°31' E 000°59'0 0.0
2017-Nov-15 07:23N 51°31' E 000°59'0 0.0
2017-Nov-15 06:56N 51°31' E 000°59'0 0.0
2017-Nov-15 06:29N 51°31' E 000°59'0 0.0
2017-Nov-15 05:59N 51°31' E 000°59'0 0.1
2017-Nov-15 04:23N 51°31' E 000°59'0 0.0
2017-Nov-15 03:53N 51°31' E 000°59'0 0.0
2017-Nov-15 03:02N 51°31' E 000°59'0 0.0
2017-Nov-15 02:41N 51°31' E 000°59'0 0.0
2017-Nov-15 02:29N 51°31' E 000°59'0 0.0
2017-Nov-15 01:47N 51°31' E 000°59'0 0.0
2017-Nov-15 01:26N 51°31' E 000°59'0 0.0
2017-Nov-15 00:59N 51°31' E 000°59'0 0.0
2017-Nov-15 00:17N 51°31' E 000°59'0 0.0
2017-Nov-14 23:59N 51°31' E 000°59'0 0.0
2017-Nov-14 23:23N 51°31' E 000°59'0 0.0
2017-Nov-14 21:17N 51°31' E 000°59'0 0.1
2017-Nov-14 20:29N 51°31' E 000°59'0 0.0
2017-Nov-14 19:50N 51°31' E 000°59'0 0.0
2017-Nov-14 19:20N 51°31' E 000°59'0 0.0
2017-Nov-14 18:59N 51°31' E 000°59'0 0.0
2017-Nov-14 18:29N 51°31' E 000°59'0 0.0
2017-Nov-14 17:59N 51°31' E 000°59'0 0.0
2017-Nov-14 17:23N 51°31' E 000°59'0 0.0
2017-Nov-14 13:23N 51°31' E 000°59'0 0.0
2017-Nov-14 12:26N 51°31' E 000°59'0 0.0
2017-Nov-14 08:06N 51°31' E 000°59'0 1.0
2017-Nov-14 07:58N 51°31' E 000°59'2 4.0
2017-Nov-14 07:30N 51°29' E 000°58'511.1
2017-Nov-14 07:00N 51°30' E 001°06'611.6
2017-Nov-14 06:30N 51°29' E 001°16'611.0
2017-Nov-14 06:00N 51°29' E 001°24'511.0
2017-Nov-14 05:30N 51°31' E 001°32'611.3
2017-Nov-14 05:00N 51°34' E 001°40'611.2
2017-Nov-14 04:30N 51°37' E 001°47'611.0
2017-Nov-14 04:00N 51°40' E 001°55'611.0
2017-Nov-14 03:30N 51°43' E 002°02'610.4
2017-Nov-14 02:55N 51°47' E 002°11'78 3.1
2017-Nov-13 01:58N 51°53' E 004°16'0 0.0
2017-Nov-13 01:28N 51°53' E 004°16'0 0.0
2017-Nov-13 00:58N 51°53' E 004°16'0 0.0
2017-Nov-13 00:28N 51°53' E 004°16'0 0.0
2017-Nov-12 23:58N 51°53' E 004°16'0 0.0
2017-Nov-12 23:28N 51°53' E 004°16'0 0.0
2017-Nov-12 22:58N 51°53' E 004°16'0 0.0
2017-Nov-12 22:28N 51°53' E 004°16'0 0.0
2017-Nov-12 21:58N 51°53' E 004°16'0 0.0
2017-Nov-12 21:28N 51°53' E 004°16'0 0.0
2017-Nov-12 20:58N 51°53' E 004°16'0 0.4
2017-Nov-12 20:30N 51°53' E 004°16'2 3.7
2017-Nov-12 20:00N 51°55' E 004°15'510.5
2017-Nov-12 19:31N 51°58' E 004°08'4 8.6
2017-Nov-12 19:00N 51°60' E 004°02'4 7.0
2017-Nov-12 18:30N 51°60' E 003°56'4 7.0
2017-Nov-12 18:00N 51°59' E 003°50'3 6.7
2017-Nov-12 17:30N 51°59' E 003°45'4 6.3
2017-Nov-12 16:56N 51°58' E 003°40'46 6.6
2017-Nov-12 09:59N 51°40' E 002°31'7 9.2
2017-Nov-12 09:11N 51°34' E 002°23'3 9.9
2017-Nov-12 08:51N 51°31' E 002°20'4 9.9
2017-Nov-12 08:26N 51°28' E 002°15'4 9.8
2017-Nov-12 08:00N 51°25' E 002°12'5 9.9
2017-Nov-12 07:30N 51°20' E 002°08'510.1
2017-Nov-12 07:01N 51°16' E 002°05'510.4
2017-Nov-12 06:30N 51°12' E 001°59'510.2
2017-Nov-12 06:00N 51°09' E 001°52'510.0
2017-Nov-12 05:30N 51°06' E 001°46'5 9.9
2017-Nov-12 05:00N 51°02' E 001°41'5 9.6
2017-Nov-12 04:30N 50°58' E 001°36'5 9.0
2017-Nov-12 04:00N 50°55' E 001°31'4 8.3
2017-Nov-12 03:30N 50°51' E 001°28'108 8.2
2017-Nov-11 14:20N 50°06' W 001°05'410.9
2017-Nov-11 14:00N 50°05' W 001°10'610.9
2017-Nov-11 13:30N 50°04' W 001°19'511.0
2017-Nov-11 13:00N 50°02' W 001°27'611.2
2017-Nov-11 12:30N 50°01' W 001°35'511.0
2017-Nov-11 12:00N 49°59' W 001°43'510.4
2017-Nov-11 11:30N 49°58' W 001°51'5 9.9
2017-Nov-11 11:00N 49°57' W 001°59'11 9.0
2017-Nov-11 09:49N 49°54' W 002°15'2 7.8
2017-Nov-11 09:30N 49°53' W 002°18'9 7.6
2017-Nov-11 08:18N 49°51' W 002°32'2 7.4
2017-Nov-11 08:00N 49°50' W 002°35'126 8.7
2017-Nov-10 17:32N 48°50' W 005°26'0 9.5
2017-Nov-10 17:29N 48°50' W 005°26'10 8.1
2017-Nov-10 16:17N 48°44' W 005°38'3 7.8
2017-Nov-10 15:53N 48°41' W 005°40'5 7.6
2017-Nov-10 15:11N 48°37' W 005°44'1 7.3
2017-Nov-10 15:00N 48°35' W 005°45'3 7.1
2017-Nov-10 14:30N 48°32' W 005°46'4 6.9
2017-Nov-10 13:57N 48°28' W 005°48'58 7.4
2017-Nov-10 06:02N 47°32' W 006°08'0 7.3
2017-Nov-10 06:00N 47°32' W 006°08'  

Dump ship's entire track history